sensor_id;sensor_type;location;lat;lon;timestamp;temperature;humidity
20973;DHT22;10645;52.370;13.314;2022-09-29T00:00:36;5.60;99.90
20973;DHT22;10645;52.370;13.314;2022-09-29T00:03:02;5.60;99.90
20973;DHT22;10645;52.370;13.314;2022-09-29T00:05:28;5.60;99.90
20973;DHT22;10645;52.370;13.314;2022-09-29T00:07:55;5.60;99.90
20973;DHT22;10645;52.370;13.314;2022-09-29T00:10:21;5.60;99.90
20973;DHT22;10645;52.370;13.314;2022-09-29T00:12:48;5.60;99.90
20973;DHT22;10645;52.370;13.314;2022-09-29T00:15:15;5.60;99.90
20973;DHT22;10645;52.370;13.314;2022-09-29T00:17:41;5.70;99.90
20973;DHT22;10645;52.370;13.314;2022-09-29T00:20:07;5.80;99.90
20973;DHT22;10645;52.370;13.314;2022-09-29T00:22:34;5.90;99.90
20973;DHT22;10645;52.370;13.314;2022-09-29T00:25:00;6.00;99.90
20973;DHT22;10645;52.370;13.314;2022-09-29T00:27:26;6.10;99.90
20973;DHT22;10645;52.370;13.314;2022-09-29T00:29:52;6.00;99.90
20973;DHT22;10645;52.370;13.314;2022-09-29T00:32:18;6.00;99.90
20973;DHT22;10645;52.370;13.314;2022-09-29T00:34:44;5.90;99.90
20973;DHT22;10645;52.370;13.314;2022-09-29T00:37:10;5.80;99.90
20973;DHT22;10645;52.370;13.314;2022-09-29T00:39:36;5.70;99.90
20973;DHT22;10645;52.370;13.314;2022-09-29T00:42:03;5.70;99.90
20973;DHT22;10645;52.370;13.314;2022-09-29T00:44:59;5.60;99.90
20973;DHT22;10645;52.370;13.314;2022-09-29T00:47:27;5.60;99.90
20973;DHT22;10645;52.370;13.314;2022-09-29T00:50:02;5.60;99.90
20973;DHT22;10645;52.370;13.314;2022-09-29T00:52:36;5.60;99.90
20973;DHT22;10645;52.370;13.314;2022-09-29T00:55:11;5.60;99.90
20973;DHT22;10645;52.370;13.314;2022-09-29T00:58:04;5.50;99.90
20973;DHT22;10645;52.370;13.314;2022-09-29T01:00:33;5.40;99.90
20973;DHT22;10645;52.370;13.314;2022-09-29T01:03:04;5.20;99.90
20973;DHT22;10645;52.370;13.314;2022-09-29T01:05:39;5.20;99.90
20973;DHT22;10645;52.370;13.314;2022-09-29T01:08:15;5.10;99.90
20973;DHT22;10645;52.370;13.314;2022-09-29T01:10:42;5.00;99.90
20973;DHT22;10645;52.370;13.314;2022-09-29T01:13:10;5.00;99.90
20973;DHT22;10645;52.370;13.314;2022-09-29T01:15:36;4.90;99.90
20973;DHT22;10645;52.370;13.314;2022-09-29T01:18:03;4.80;99.90
20973;DHT22;10645;52.370;13.314;2022-09-29T01:20:33;4.80;99.90
20973;DHT22;10645;52.370;13.314;2022-09-29T01:31:56;4.70;99.90
20973;DHT22;10645;52.370;13.314;2022-09-29T01:37:50;4.60;99.90
20973;DHT22;10645;52.370;13.314;2022-09-29T01:40:41;4.50;99.90
20973;DHT22;10645;52.370;13.314;2022-09-29T01:43:17;4.40;99.90
20973;DHT22;10645;52.370;13.314;2022-09-29T01:45:50;4.30;99.90
20973;DHT22;10645;52.370;13.314;2022-09-29T01:48:24;4.30;99.90
20973;DHT22;10645;52.370;13.314;2022-09-29T01:50:55;4.30;99.90
20973;DHT22;10645;52.370;13.314;2022-09-29T01:53:34;4.30;99.90
20973;DHT22;10645;52.370;13.314;2022-09-29T01:56:06;4.40;99.90
20973;DHT22;10645;52.370;13.314;2022-09-29T01:58:46;4.40;99.90
20973;DHT22;10645;52.370;13.314;2022-09-29T02:01:14;4.40;99.90
20973;DHT22;10645;52.370;13.314;2022-09-29T02:03:47;4.40;99.90
20973;DHT22;10645;52.370;13.314;2022-09-29T02:06:35;4.40;99.90
20973;DHT22;10645;52.370;13.314;2022-09-29T02:09:08;4.40;99.90
20973;DHT22;10645;52.370;13.314;2022-09-29T02:11:40;4.40;99.90
20973;DHT22;10645;52.370;13.314;2022-09-29T02:16:42;4.30;99.90
20973;DHT22;10645;52.370;13.314;2022-09-29T02:19:21;4.30;99.90
20973;DHT22;10645;52.370;13.314;2022-09-29T02:21:47;4.40;99.90
20973;DHT22;10645;52.370;13.314;2022-09-29T02:24:14;4.40;99.90
20973;DHT22;10645;52.370;13.314;2022-09-29T02:26:40;4.50;99.90
20973;DHT22;10645;52.370;13.314;2022-09-29T02:29:07;4.50;99.90
20973;DHT22;10645;52.370;13.314;2022-09-29T02:31:35;4.60;99.90
20973;DHT22;10645;52.370;13.314;2022-09-29T02:34:03;4.60;99.90
20973;DHT22;10645;52.370;13.314;2022-09-29T02:41:53;4.80;99.90
20973;DHT22;10645;52.370;13.314;2022-09-29T02:44:41;4.90;99.90
20973;DHT22;10645;52.370;13.314;2022-09-29T02:47:35;5.00;99.90
20973;DHT22;10645;52.370;13.314;2022-09-29T02:52:54;5.10;99.90
20973;DHT22;10645;52.370;13.314;2022-09-29T02:55:36;5.20;99.90
20973;DHT22;10645;52.370;13.314;2022-09-29T02:58:17;5.20;99.90
20973;DHT22;10645;52.370;13.314;2022-09-29T03:00:46;5.30;99.90
20973;DHT22;10645;52.370;13.314;2022-09-29T03:03:12;5.40;99.90
20973;DHT22;10645;52.370;13.314;2022-09-29T03:05:38;5.50;99.90
20973;DHT22;10645;52.370;13.314;2022-09-29T03:08:04;5.50;99.90
20973;DHT22;10645;52.370;13.314;2022-09-29T03:10:30;5.60;99.90
20973;DHT22;10645;52.370;13.314;2022-09-29T03:12:56;5.60;99.90
20973;DHT22;10645;52.370;13.314;2022-09-29T03:15:22;5.70;99.90
20973;DHT22;10645;52.370;13.314;2022-09-29T03:17:49;5.80;99.90
20973;DHT22;10645;52.370;13.314;2022-09-29T03:20:15;6.10;99.90
20973;DHT22;10645;52.370;13.314;2022-09-29T03:22:41;6.20;99.90
20973;DHT22;10645;52.370;13.314;2022-09-29T03:25:07;6.20;99.90
20973;DHT22;10645;52.370;13.314;2022-09-29T03:27:34;6.30;99.90
20973;DHT22;10645;52.370;13.314;2022-09-29T03:30:02;6.30;99.90
20973;DHT22;10645;52.370;13.314;2022-09-29T03:32:28;6.30;99.90
20973;DHT22;10645;52.370;13.314;2022-09-29T03:34:55;6.30;99.90
20973;DHT22;10645;52.370;13.314;2022-09-29T03:37:21;6.30;99.90
20973;DHT22;10645;52.370;13.314;2022-09-29T03:39:47;6.30;99.90
20973;DHT22;10645;52.370;13.314;2022-09-29T03:42:13;6.40;99.90
20973;DHT22;10645;52.370;13.314;2022-09-29T03:44:39;6.50;99.90
20973;DHT22;10645;52.370;13.314;2022-09-29T03:47:05;6.60;99.90
20973;DHT22;10645;52.370;13.314;2022-09-29T03:49:31;6.60;99.90
20973;DHT22;10645;52.370;13.314;2022-09-29T03:51:57;6.60;99.90
20973;DHT22;10645;52.370;13.314;2022-09-29T03:54:23;6.80;99.90
20973;DHT22;10645;52.370;13.314;2022-09-29T03:56:52;7.00;99.90
20973;DHT22;10645;52.370;13.314;2022-09-29T03:59:18;7.00;99.90
20973;DHT22;10645;52.370;13.314;2022-09-29T04:01:44;6.90;99.90
20973;DHT22;10645;52.370;13.314;2022-09-29T04:04:10;6.80;99.90
20973;DHT22;10645;52.370;13.314;2022-09-29T04:06:37;6.80;99.90
20973;DHT22;10645;52.370;13.314;2022-09-29T04:09:03;6.80;99.90
20973;DHT22;10645;52.370;13.314;2022-09-29T04:11:29;6.80;99.90
20973;DHT22;10645;52.370;13.314;2022-09-29T04:13:55;6.80;99.90
20973;DHT22;10645;52.370;13.314;2022-09-29T04:16:21;6.70;99.90
20973;DHT22;10645;52.370;13.314;2022-09-29T04:18:47;6.70;99.90
20973;DHT22;10645;52.370;13.314;2022-09-29T04:21:13;6.70;99.90
20973;DHT22;10645;52.370;13.314;2022-09-29T04:23:39;6.70;99.90
20973;DHT22;10645;52.370;13.314;2022-09-29T04:26:06;6.60;99.90
20973;DHT22;10645;52.370;13.314;2022-09-29T04:28:34;6.60;99.90
20973;DHT22;10645;52.370;13.314;2022-09-29T04:31:01;6.60;99.90
20973;DHT22;10645;52.370;13.314;2022-09-29T04:33:27;6.60;99.90
20973;DHT22;10645;52.370;13.314;2022-09-29T04:35:55;6.60;99.90
20973;DHT22;10645;52.370;13.314;2022-09-29T04:38:21;6.60;99.90
20973;DHT22;10645;52.370;13.314;2022-09-29T04:40:47;6.60;99.90
20973;DHT22;10645;52.370;13.314;2022-09-29T04:43:14;6.70;99.90
20973;DHT22;10645;52.370;13.314;2022-09-29T04:45:40;6.70;99.90
20973;DHT22;10645;52.370;13.314;2022-09-29T04:48:06;6.70;99.90
20973;DHT22;10645;52.370;13.314;2022-09-29T04:50:33;6.70;99.90
20973;DHT22;10645;52.370;13.314;2022-09-29T04:52:59;6.70;99.90
20973;DHT22;10645;52.370;13.314;2022-09-29T04:55:25;6.70;99.90
20973;DHT22;10645;52.370;13.314;2022-09-29T04:57:52;6.70;99.90
20973;DHT22;10645;52.370;13.314;2022-09-29T05:00:18;6.80;99.90
20973;DHT22;10645;52.370;13.314;2022-09-29T05:02:44;6.80;99.90
20973;DHT22;10645;52.370;13.314;2022-09-29T05:05:11;6.70;99.90
20973;DHT22;10645;52.370;13.314;2022-09-29T05:07:38;6.70;99.90
20973;DHT22;10645;52.370;13.314;2022-09-29T05:10:08;6.70;99.90
20973;DHT22;10645;52.370;13.314;2022-09-29T05:12:34;6.70;99.90
20973;DHT22;10645;52.370;13.314;2022-09-29T05:15:00;6.70;99.90
20973;DHT22;10645;52.370;13.314;2022-09-29T05:17:26;6.70;99.90
20973;DHT22;10645;52.370;13.314;2022-09-29T05:19:52;6.70;99.90
20973;DHT22;10645;52.370;13.314;2022-09-29T05:22:18;6.80;99.90
20973;DHT22;10645;52.370;13.314;2022-09-29T05:24:51;6.80;99.90
20973;DHT22;10645;52.370;13.314;2022-09-29T05:27:18;6.80;99.90
20973;DHT22;10645;52.370;13.314;2022-09-29T05:29:44;6.80;99.90
20973;DHT22;10645;52.370;13.314;2022-09-29T05:32:11;6.80;99.90
20973;DHT22;10645;52.370;13.314;2022-09-29T05:34:37;6.80;99.90
20973;DHT22;10645;52.370;13.314;2022-09-29T05:37:03;6.90;99.90
20973;DHT22;10645;52.370;13.314;2022-09-29T05:39:29;6.90;99.90
20973;DHT22;10645;52.370;13.314;2022-09-29T05:42:03;7.00;99.90
20973;DHT22;10645;52.370;13.314;2022-09-29T05:44:32;7.00;99.90
20973;DHT22;10645;52.370;13.314;2022-09-29T05:46:58;7.00;99.90
20973;DHT22;10645;52.370;13.314;2022-09-29T05:49:24;7.00;99.90
20973;DHT22;10645;52.370;13.314;2022-09-29T05:51:51;7.00;99.90
20973;DHT22;10645;52.370;13.314;2022-09-29T05:54:17;7.00;99.90
20973;DHT22;10645;52.370;13.314;2022-09-29T05:56:43;7.00;99.90
20973;DHT22;10645;52.370;13.314;2022-09-29T05:59:09;7.10;99.90
20973;DHT22;10645;52.370;13.314;2022-09-29T06:01:35;7.10;99.90
20973;DHT22;10645;52.370;13.314;2022-09-29T06:04:02;7.10;99.90
20973;DHT22;10645;52.370;13.314;2022-09-29T06:06:28;7.10;99.90
20973;DHT22;10645;52.370;13.314;2022-09-29T06:08:56;7.10;99.90
20973;DHT22;10645;52.370;13.314;2022-09-29T06:11:25;7.20;99.90
20973;DHT22;10645;52.370;13.314;2022-09-29T06:13:53;7.20;99.90
20973;DHT22;10645;52.370;13.314;2022-09-29T06:16:22;7.20;99.90
20973;DHT22;10645;52.370;13.314;2022-09-29T06:18:49;7.20;99.90
20973;DHT22;10645;52.370;13.314;2022-09-29T06:21:20;7.20;99.90
20973;DHT22;10645;52.370;13.314;2022-09-29T06:23:49;7.30;99.90
20973;DHT22;10645;52.370;13.314;2022-09-29T06:26:17;7.30;99.90
20973;DHT22;10645;52.370;13.314;2022-09-29T06:28:43;7.30;99.90
20973;DHT22;10645;52.370;13.314;2022-09-29T06:31:13;7.40;99.90
20973;DHT22;10645;52.370;13.314;2022-09-29T06:33:40;7.40;99.90
20973;DHT22;10645;52.370;13.314;2022-09-29T06:36:17;7.50;99.90
20973;DHT22;10645;52.370;13.314;2022-09-29T06:39:03;7.50;99.90
20973;DHT22;10645;52.370;13.314;2022-09-29T06:41:30;7.60;99.90
20973;DHT22;10645;52.370;13.314;2022-09-29T06:43:56;7.60;99.90
20973;DHT22;10645;52.370;13.314;2022-09-29T06:46:23;7.70;99.90
20973;DHT22;10645;52.370;13.314;2022-09-29T06:48:55;7.70;99.90
20973;DHT22;10645;52.370;13.314;2022-09-29T06:51:22;7.80;99.90
20973;DHT22;10645;52.370;13.314;2022-09-29T06:53:49;7.80;99.90
20973;DHT22;10645;52.370;13.314;2022-09-29T06:56:16;7.80;99.90
20973;DHT22;10645;52.370;13.314;2022-09-29T06:58:44;7.90;99.90
20973;DHT22;10645;52.370;13.314;2022-09-29T07:01:11;7.90;99.90
20973;DHT22;10645;52.370;13.314;2022-09-29T07:03:38;8.00;99.90
20973;DHT22;10645;52.370;13.314;2022-09-29T07:06:05;8.10;99.90
20973;DHT22;10645;52.370;13.314;2022-09-29T07:08:32;8.20;99.90
20973;DHT22;10645;52.370;13.314;2022-09-29T07:11:00;8.20;99.90
20973;DHT22;10645;52.370;13.314;2022-09-29T07:13:28;8.30;99.90
20973;DHT22;10645;52.370;13.314;2022-09-29T07:15:54;8.40;99.90
20973;DHT22;10645;52.370;13.314;2022-09-29T07:18:20;8.40;99.90
20973;DHT22;10645;52.370;13.314;2022-09-29T07:20:47;8.50;99.90
20973;DHT22;10645;52.370;13.314;2022-09-29T07:23:13;8.50;99.90
20973;DHT22;10645;52.370;13.314;2022-09-29T07:25:39;8.60;99.90
20973;DHT22;10645;52.370;13.314;2022-09-29T07:28:05;8.70;99.90
20973;DHT22;10645;52.370;13.314;2022-09-29T07:30:32;8.80;99.90
20973;DHT22;10645;52.370;13.314;2022-09-29T07:32:58;8.90;99.90
20973;DHT22;10645;52.370;13.314;2022-09-29T07:35:24;8.90;99.90
20973;DHT22;10645;52.370;13.314;2022-09-29T07:37:53;9.00;99.90
20973;DHT22;10645;52.370;13.314;2022-09-29T07:40:23;9.10;99.90
20973;DHT22;10645;52.370;13.314;2022-09-29T07:42:49;9.10;99.90
20973;DHT22;10645;52.370;13.314;2022-09-29T07:45:16;9.10;99.90
20973;DHT22;10645;52.370;13.314;2022-09-29T07:47:43;9.20;99.90
20973;DHT22;10645;52.370;13.314;2022-09-29T07:50:09;9.20;99.90
20973;DHT22;10645;52.370;13.314;2022-09-29T07:52:35;9.20;99.90
20973;DHT22;10645;52.370;13.314;2022-09-29T07:55:02;9.30;99.90
20973;DHT22;10645;52.370;13.314;2022-09-29T07:57:29;9.40;99.90
20973;DHT22;10645;52.370;13.314;2022-09-29T07:59:55;9.50;99.90
20973;DHT22;10645;52.370;13.314;2022-09-29T08:02:24;9.50;99.90
20973;DHT22;10645;52.370;13.314;2022-09-29T08:04:50;9.50;99.90
20973;DHT22;10645;52.370;13.314;2022-09-29T08:07:16;9.50;99.90
20973;DHT22;10645;52.370;13.314;2022-09-29T08:09:42;9.60;99.90
20973;DHT22;10645;52.370;13.314;2022-09-29T08:12:08;9.60;99.90
20973;DHT22;10645;52.370;13.314;2022-09-29T08:14:34;9.70;99.90
20973;DHT22;10645;52.370;13.314;2022-09-29T08:17:00;9.80;99.90
20973;DHT22;10645;52.370;13.314;2022-09-29T08:19:26;9.80;99.90
20973;DHT22;10645;52.370;13.314;2022-09-29T08:21:53;9.90;99.90
20973;DHT22;10645;52.370;13.314;2022-09-29T08:24:19;10.20;99.90
20973;DHT22;10645;52.370;13.314;2022-09-29T08:26:45;10.30;99.90
20973;DHT22;10645;52.370;13.314;2022-09-29T08:29:12;10.40;99.90
20973;DHT22;10645;52.370;13.314;2022-09-29T08:31:38;10.50;99.90
20973;DHT22;10645;52.370;13.314;2022-09-29T08:34:05;10.40;99.90
20973;DHT22;10645;52.370;13.314;2022-09-29T08:36:31;10.60;99.90
20973;DHT22;10645;52.370;13.314;2022-09-29T08:38:57;10.80;99.90
20973;DHT22;10645;52.370;13.314;2022-09-29T08:43:56;11.10;99.90
20973;DHT22;10645;52.370;13.314;2022-09-29T08:46:38;11.20;99.90
20973;DHT22;10645;52.370;13.314;2022-09-29T08:49:17;11.30;99.90
20973;DHT22;10645;52.370;13.314;2022-09-29T08:51:49;11.40;99.90
20973;DHT22;10645;52.370;13.314;2022-09-29T08:56:50;11.40;99.90
20973;DHT22;10645;52.370;13.314;2022-09-29T08:59:16;11.30;99.90
20973;DHT22;10645;52.370;13.314;2022-09-29T09:08:03;11.90;99.90
20973;DHT22;10645;52.370;13.314;2022-09-29T09:10:42;12.00;99.90
20973;DHT22;10645;52.370;13.314;2022-09-29T09:16:42;12.20;99.90
20973;DHT22;10645;52.370;13.314;2022-09-29T09:19:41;12.40;99.90
20973;DHT22;10645;52.370;13.314;2022-09-29T09:22:22;12.50;99.90
20973;DHT22;10645;52.370;13.314;2022-09-29T09:27:53;12.40;99.90
20973;DHT22;10645;52.370;13.314;2022-09-29T09:30:21;12.40;99.90
20973;DHT22;10645;52.370;13.314;2022-09-29T09:32:54;12.60;99.90
20973;DHT22;10645;52.370;13.314;2022-09-29T09:35:34;12.80;99.90
20973;DHT22;10645;52.370;13.314;2022-09-29T09:38:05;13.00;99.90
20973;DHT22;10645;52.370;13.314;2022-09-29T09:40:44;13.00;99.90
20973;DHT22;10645;52.370;13.314;2022-09-29T09:43:25;12.70;99.90
20973;DHT22;10645;52.370;13.314;2022-09-29T09:46:00;12.60;99.90
20973;DHT22;10645;52.370;13.314;2022-09-29T09:48:35;12.70;99.90
20973;DHT22;10645;52.370;13.314;2022-09-29T09:54:02;12.70;99.90
20973;DHT22;10645;52.370;13.314;2022-09-29T09:56:39;12.70;99.90
20973;DHT22;10645;52.370;13.314;2022-09-29T10:01:49;12.70;99.90
20973;DHT22;10645;52.370;13.314;2022-09-29T10:04:15;12.90;99.90
20973;DHT22;10645;52.370;13.314;2022-09-29T10:06:41;13.10;99.90
20973;DHT22;10645;52.370;13.314;2022-09-29T10:09:14;13.30;99.90
20973;DHT22;10645;52.370;13.314;2022-09-29T10:11:42;13.50;99.90
20973;DHT22;10645;52.370;13.314;2022-09-29T10:17:00;13.90;99.90
20973;DHT22;10645;52.370;13.314;2022-09-29T10:19:57;13.80;99.90
20973;DHT22;10645;52.370;13.314;2022-09-29T10:22:24;13.80;99.90
20973;DHT22;10645;52.370;13.314;2022-09-29T10:25:13;13.60;99.90
20973;DHT22;10645;52.370;13.314;2022-09-29T10:27:52;13.80;99.90
20973;DHT22;10645;52.370;13.314;2022-09-29T10:30:22;14.00;99.90
20973;DHT22;10645;52.370;13.314;2022-09-29T10:32:51;14.40;99.90
20973;DHT22;10645;52.370;13.314;2022-09-29T10:35:25;14.60;99.90
20973;DHT22;10645;52.370;13.314;2022-09-29T10:37:59;14.70;99.90
20973;DHT22;10645;52.370;13.314;2022-09-29T10:40:26;14.60;99.90
20973;DHT22;10645;52.370;13.314;2022-09-29T10:42:52;14.80;99.90
20973;DHT22;10645;52.370;13.314;2022-09-29T10:45:29;15.10;99.90
20973;DHT22;10645;52.370;13.314;2022-09-29T10:50:31;15.30;99.90
20973;DHT22;10645;52.370;13.314;2022-09-29T10:53:02;15.30;99.90
20973;DHT22;10645;52.370;13.314;2022-09-29T10:55:32;15.30;99.90
20973;DHT22;10645;52.370;13.314;2022-09-29T10:58:04;15.10;99.90
20973;DHT22;10645;52.370;13.314;2022-09-29T11:00:41;15.00;99.90
20973;DHT22;10645;52.370;13.314;2022-09-29T11:05:53;14.90;99.90
20973;DHT22;10645;52.370;13.314;2022-09-29T11:08:20;14.80;99.90
20973;DHT22;10645;52.370;13.314;2022-09-29T11:11:06;14.90;99.90
20973;DHT22;10645;52.370;13.314;2022-09-29T11:13:39;15.30;99.90
20973;DHT22;10645;52.370;13.314;2022-09-29T11:18:41;16.00;99.90
20973;DHT22;10645;52.370;13.314;2022-09-29T11:30:22;15.80;99.90
20973;DHT22;10645;52.370;13.314;2022-09-29T11:32:41;15.40;99.90
20973;DHT22;10645;52.370;13.314;2022-09-29T11:35:33;15.10;99.90
20973;DHT22;10645;52.370;13.314;2022-09-29T11:43:46;14.60;99.90
20973;DHT22;10645;52.370;13.314;2022-09-29T11:46:41;14.60;99.90
20973;DHT22;10645;52.370;13.314;2022-09-29T11:52:53;14.40;99.90
20973;DHT22;10645;52.370;13.314;2022-09-29T11:55:13;14.30;99.90
20973;DHT22;10645;52.370;13.314;2022-09-29T12:01:05;14.30;99.90
20973;DHT22;10645;52.370;13.314;2022-09-29T12:03:43;14.20;99.90
20973;DHT22;10645;52.370;13.314;2022-09-29T12:17:03;14.70;99.90
20973;DHT22;10645;52.370;13.314;2022-09-29T12:19:33;14.60;99.90
20973;DHT22;10645;52.370;13.314;2022-09-29T12:22:07;14.80;99.90
20973;DHT22;10645;52.370;13.314;2022-09-29T12:24:40;15.00;99.90
20973;DHT22;10645;52.370;13.314;2022-09-29T12:27:25;15.20;99.90
20973;DHT22;10645;52.370;13.314;2022-09-29T12:29:57;15.50;99.90
20973;DHT22;10645;52.370;13.314;2022-09-29T12:32:37;15.60;99.90
20973;DHT22;10645;52.370;13.314;2022-09-29T12:35:08;15.70;99.90
20973;DHT22;10645;52.370;13.314;2022-09-29T12:37:46;15.80;99.90
20973;DHT22;10645;52.370;13.314;2022-09-29T12:40:38;15.70;99.90
20973;DHT22;10645;52.370;13.314;2022-09-29T12:48:43;14.90;99.90
20973;DHT22;10645;52.370;13.314;2022-09-29T12:51:36;15.00;99.90
20973;DHT22;10645;52.370;13.314;2022-09-29T12:54:23;14.80;99.90
20973;DHT22;10645;52.370;13.314;2022-09-29T12:56:57;14.70;99.90
20973;DHT22;10645;52.370;13.314;2022-09-29T12:59:36;14.70;99.90
20973;DHT22;10645;52.370;13.314;2022-09-29T13:13:47;14.70;99.90
20973;DHT22;10645;52.370;13.314;2022-09-29T13:16:38;14.60;99.90
20973;DHT22;10645;52.370;13.314;2022-09-29T13:19:47;14.70;99.90
20973;DHT22;10645;52.370;13.314;2022-09-29T13:25:24;15.10;99.90
20973;DHT22;10645;52.370;13.314;2022-09-29T13:27:55;15.20;99.90
20973;DHT22;10645;52.370;13.314;2022-09-29T13:30:26;15.30;99.90
20973;DHT22;10645;52.370;13.314;2022-09-29T13:33:02;15.40;99.90
20973;DHT22;10645;52.370;13.314;2022-09-29T13:35:41;15.40;99.90
20973;DHT22;10645;52.370;13.314;2022-09-29T13:38:17;15.50;99.90
20973;DHT22;10645;52.370;13.314;2022-09-29T13:46:36;15.00;99.90
20973;DHT22;10645;52.370;13.314;2022-09-29T13:56:48;15.30;99.90
20973;DHT22;10645;52.370;13.314;2022-09-29T13:59:18;15.30;99.90
20973;DHT22;10645;52.370;13.314;2022-09-29T14:01:46;15.30;99.90
20973;DHT22;10645;52.370;13.314;2022-09-29T14:04:32;15.20;99.90
20973;DHT22;10645;52.370;13.314;2022-09-29T14:07:01;15.10;99.90
20973;DHT22;10645;52.370;13.314;2022-09-29T14:09:32;15.10;99.90
20973;DHT22;10645;52.370;13.314;2022-09-29T14:12:07;15.10;99.90
20973;DHT22;10645;52.370;13.314;2022-09-29T14:14:40;15.00;99.90
20973;DHT22;10645;52.370;13.314;2022-09-29T14:17:22;14.90;99.90
20973;DHT22;10645;52.370;13.314;2022-09-29T14:19:51;14.80;99.90
20973;DHT22;10645;52.370;13.314;2022-09-29T14:32:50;14.70;99.90
20973;DHT22;10645;52.370;13.314;2022-09-29T14:35:33;14.70;99.90
20973;DHT22;10645;52.370;13.314;2022-09-29T14:40:37;14.80;99.90
20973;DHT22;10645;52.370;13.314;2022-09-29T14:43:07;14.80;99.90
20973;DHT22;10645;52.370;13.314;2022-09-29T14:45:50;14.80;99.90
20973;DHT22;10645;52.370;13.314;2022-09-29T14:49:11;14.90;99.90
20973;DHT22;10645;52.370;13.314;2022-09-29T14:52:37;15.00;99.90
20973;DHT22;10645;52.370;13.314;2022-09-29T14:55:30;14.90;99.90
20973;DHT22;10645;52.370;13.314;2022-09-29T14:58:30;14.90;99.90
20973;DHT22;10645;52.370;13.314;2022-09-29T15:01:18;14.90;99.90
20973;DHT22;10645;52.370;13.314;2022-09-29T15:03:51;14.90;99.90
20973;DHT22;10645;52.370;13.314;2022-09-29T15:06:23;14.90;99.90
20973;DHT22;10645;52.370;13.314;2022-09-29T15:09:17;14.80;99.90
20973;DHT22;10645;52.370;13.314;2022-09-29T15:11:54;14.80;99.90
20973;DHT22;10645;52.370;13.314;2022-09-29T15:14:24;14.80;99.90
20973;DHT22;10645;52.370;13.314;2022-09-29T15:17:30;14.80;99.90
20973;DHT22;10645;52.370;13.314;2022-09-29T15:20:14;14.70;99.90
20973;DHT22;10645;52.370;13.314;2022-09-29T15:22:51;14.60;99.90
20973;DHT22;10645;52.370;13.314;2022-09-29T15:25:34;14.60;99.90
20973;DHT22;10645;52.370;13.314;2022-09-29T15:30:40;14.50;99.90
20973;DHT22;10645;52.370;13.314;2022-09-29T15:35:42;14.20;99.90
20973;DHT22;10645;52.370;13.314;2022-09-29T15:40:56;14.20;99.90
20973;DHT22;10645;52.370;13.314;2022-09-29T15:43:26;14.10;99.90
20973;DHT22;10645;52.370;13.314;2022-09-29T15:45:59;14.00;99.90
20973;DHT22;10645;52.370;13.314;2022-09-29T15:48:26;14.00;99.90
20973;DHT22;10645;52.370;13.314;2022-09-29T15:50:52;13.90;99.90
20973;DHT22;10645;52.370;13.314;2022-09-29T15:53:24;13.70;99.90
20973;DHT22;10645;52.370;13.314;2022-09-29T15:55:52;13.60;99.90
20973;DHT22;10645;52.370;13.314;2022-09-29T16:03:28;13.40;99.90
20973;DHT22;10645;52.370;13.314;2022-09-29T16:06:11;13.30;99.90
20973;DHT22;10645;52.370;13.314;2022-09-29T16:08:42;13.20;99.90
20973;DHT22;10645;52.370;13.314;2022-09-29T16:11:19;13.10;99.90
20973;DHT22;10645;52.370;13.314;2022-09-29T16:13:49;12.90;99.90
20973;DHT22;10645;52.370;13.314;2022-09-29T16:16:16;12.80;99.90
20973;DHT22;10645;52.370;13.314;2022-09-29T16:18:48;12.80;99.90
20973;DHT22;10645;52.370;13.314;2022-09-29T16:21:17;12.70;99.90
20973;DHT22;10645;52.370;13.314;2022-09-29T16:24:13;12.60;99.90
20973;DHT22;10645;52.370;13.314;2022-09-29T16:26:48;12.60;99.90
20973;DHT22;10645;52.370;13.314;2022-09-29T16:31:43;12.50;99.90
20973;DHT22;10645;52.370;13.314;2022-09-29T16:34:30;12.40;99.90
20973;DHT22;10645;52.370;13.314;2022-09-29T16:37:14;12.20;99.90
20973;DHT22;10645;52.370;13.314;2022-09-29T16:39:44;12.00;99.90
20973;DHT22;10645;52.370;13.314;2022-09-29T16:42:24;11.80;99.90
20973;DHT22;10645;52.370;13.314;2022-09-29T16:44:51;11.60;99.90
20973;DHT22;10645;52.370;13.314;2022-09-29T16:47:27;11.40;99.90
20973;DHT22;10645;52.370;13.314;2022-09-29T16:49:56;11.20;99.90
20973;DHT22;10645;52.370;13.314;2022-09-29T16:52:39;11.00;99.90
20973;DHT22;10645;52.370;13.314;2022-09-29T16:58:05;10.70;99.90
20973;DHT22;10645;52.370;13.314;2022-09-29T17:00:33;10.60;99.90
20973;DHT22;10645;52.370;13.314;2022-09-29T17:03:01;10.50;99.90
20973;DHT22;10645;52.370;13.314;2022-09-29T17:05:34;10.40;99.90
20973;DHT22;10645;52.370;13.314;2022-09-29T17:08:04;10.40;99.90
20973;DHT22;10645;52.370;13.314;2022-09-29T17:10:30;10.40;99.90
20973;DHT22;10645;52.370;13.314;2022-09-29T17:12:57;10.40;99.90
20973;DHT22;10645;52.370;13.314;2022-09-29T17:15:24;10.30;99.90
20973;DHT22;10645;52.370;13.314;2022-09-29T17:17:51;10.10;99.90
20973;DHT22;10645;52.370;13.314;2022-09-29T17:20:20;9.90;99.90
20973;DHT22;10645;52.370;13.314;2022-09-29T17:22:54;9.70;99.90
20973;DHT22;10645;52.370;13.314;2022-09-29T17:25:21;9.50;99.90
20973;DHT22;10645;52.370;13.314;2022-09-29T17:27:47;9.30;99.90
20973;DHT22;10645;52.370;13.314;2022-09-29T17:30:32;9.20;99.90
20973;DHT22;10645;52.370;13.314;2022-09-29T17:32:58;9.00;99.90
20973;DHT22;10645;52.370;13.314;2022-09-29T17:35:30;8.90;99.90
20973;DHT22;10645;52.370;13.314;2022-09-29T17:37:58;8.70;99.90
20973;DHT22;10645;52.370;13.314;2022-09-29T17:40:35;8.60;99.90
20973;DHT22;10645;52.370;13.314;2022-09-29T17:43:02;8.50;99.90
20973;DHT22;10645;52.370;13.314;2022-09-29T17:45:29;8.40;99.90
20973;DHT22;10645;52.370;13.314;2022-09-29T17:47:57;8.30;99.90
20973;DHT22;10645;52.370;13.314;2022-09-29T17:50:36;8.10;99.90
20973;DHT22;10645;52.370;13.314;2022-09-29T17:53:06;8.10;99.90
20973;DHT22;10645;52.370;13.314;2022-09-29T17:55:33;8.00;99.90
20973;DHT22;10645;52.370;13.314;2022-09-29T17:57:59;7.90;99.90
20973;DHT22;10645;52.370;13.314;2022-09-29T18:00:30;7.80;99.90
20973;DHT22;10645;52.370;13.314;2022-09-29T18:02:56;7.70;99.90
20973;DHT22;10645;52.370;13.314;2022-09-29T18:05:25;7.70;99.90
20973;DHT22;10645;52.370;13.314;2022-09-29T18:07:53;7.60;99.90
20973;DHT22;10645;52.370;13.314;2022-09-29T18:10:25;7.50;99.90
20973;DHT22;10645;52.370;13.314;2022-09-29T18:12:52;7.40;99.90
20973;DHT22;10645;52.370;13.314;2022-09-29T18:15:18;7.40;99.90
20973;DHT22;10645;52.370;13.314;2022-09-29T18:17:44;7.30;99.90
20973;DHT22;10645;52.370;13.314;2022-09-29T18:20:12;7.20;99.90
20973;DHT22;10645;52.370;13.314;2022-09-29T18:22:39;7.20;99.90
20973;DHT22;10645;52.370;13.314;2022-09-29T18:25:05;7.10;99.90